The Blue Peter — 2FZY3 — position and weather

sailwx.info

Track history (hours):
 
Tides and Currents Weather Stations Pressure Air Temp Water Temp Dewpoint Dewpoint Depression Visibility Wind Speed Wind Dir Waves Ship Positions

The Blue Peter

Last reported at 2017-Nov-10 03:48 UTC. Time now 2017-Nov-24 04:03 UTC.
Position N 27°46' W 015°03'.
Warning: this ship's position is 14 days out of date.

Length 20 m.

MMSI: 235095651.

Date/timePositionNaut miles runAvg speedWind from/ knotsBaromVisibWave heightAir tempDewpointWater temp
2017-Nov-10 03:48N 27°46' W 015°03'2 6.0
2017-Nov-10 03:30N 27°48' W 015°02'3 5.9
2017-Nov-10 03:00N 27°50' W 014°60'3 6.2
2017-Nov-10 02:30N 27°52' W 014°57'3 6.1
2017-Nov-10 02:00N 27°54' W 014°54'3 6.1
2017-Nov-10 01:29N 27°56' W 014°52'3 6.0
2017-Nov-10 01:00N 27°58' W 014°49'3 6.1
2017-Nov-10 00:29N 27°60' W 014°47'3 6.0
2017-Nov-09 23:58N 28°02' W 014°44'3 5.7
2017-Nov-09 23:29N 28°04' W 014°42'3 5.8
2017-Nov-09 22:57N 28°07' W 014°40'3 5.8
2017-Nov-09 22:28N 28°09' W 014°38'3 5.8
2017-Nov-09 21:57N 28°11' W 014°36'58 5.5
2017-Nov-09 11:29N 28°49' W 013°46'8 0.4
2017-Nov-08 14:22N 28°54' W 013°39'2 6.7
2017-Nov-08 14:00N 28°56' W 013°37'4 7.2
2017-Nov-08 13:30N 28°57' W 013°33'1 3.0
2017-Nov-08 13:00N 28°58' W 013°32'0 0.7
2017-Nov-08 12:25N 28°58' W 013°32'0 0.0
2017-Nov-08 11:55N 28°58' W 013°32'0 0.0
2017-Nov-08 11:31N 28°58' W 013°32'0 0.0
2017-Nov-08 11:01N 28°58' W 013°32'0 0.0
2017-Nov-08 10:31N 28°58' W 013°32'0 0.0
2017-Nov-08 09:46N 28°58' W 013°32'0 0.0
2017-Nov-07 15:23N 28°58' W 013°32'0 0.0
2017-Nov-07 14:50N 28°58' W 013°32'0 0.0
2017-Nov-07 14:20N 28°58' W 013°32'0 0.0
2017-Nov-07 13:56N 28°58' W 013°32'0 0.0
2017-Nov-07 12:08N 28°58' W 013°32'0 0.0
2017-Nov-07 11:14N 28°58' W 013°32'0 0.0
2017-Nov-07 10:53N 28°58' W 013°32'0 0.0
2017-Nov-07 10:26N 28°58' W 013°32'0 0.0
2017-Nov-07 09:56N 28°58' W 013°32'0 0.0
2017-Nov-07 08:56N 28°58' W 013°32'0 0.0
2017-Nov-07 07:26N 28°58' W 013°32'0 0.0
2017-Nov-07 06:56N 28°58' W 013°32'0 0.0
2017-Nov-07 06:29N 28°58' W 013°32'0 0.0
2017-Nov-07 05:50N 28°58' W 013°32'0 0.0
2017-Nov-07 05:08N 28°58' W 013°32'0 0.0
2017-Nov-07 04:44N 28°58' W 013°32'0 0.0
2017-Nov-07 04:02N 28°58' W 013°32'0 0.0
2017-Nov-07 03:53N 28°58' W 013°32'0 0.0
2017-Nov-07 02:32N 28°58' W 013°32'0 0.0
2017-Nov-07 02:20N 28°58' W 013°32'0 0.0
2017-Nov-07 01:56N 28°58' W 013°32'0 0.0
2017-Nov-07 01:20N 28°58' W 013°32'0 0.0
2017-Nov-06 21:38N 28°58' W 013°32'0 0.0
2017-Nov-06 21:14N 28°58' W 013°32'0 0.0
2017-Nov-06 20:56N 28°58' W 013°32'0 0.0
2017-Nov-06 20:14N 28°58' W 013°32'0 0.0
2017-Nov-06 02:20N 28°58' W 013°32'0 0.0
2017-Nov-06 01:56N 28°58' W 013°32'0 0.0
2017-Nov-06 01:26N 28°58' W 013°32'0 0.0
2017-Nov-06 00:56N 28°58' W 013°32'0 0.0
2017-Nov-06 00:26N 28°58' W 013°32'0 0.0
2017-Nov-05 23:59N 28°58' W 013°32'0 0.0
2017-Nov-05 23:26N 28°58' W 013°32'0 0.0
2017-Nov-05 22:50N 28°58' W 013°32'0 0.0
2017-Nov-05 22:08N 28°58' W 013°32'0 0.0
2017-Nov-05 21:50N 28°58' W 013°32'0 0.0
2017-Nov-05 21:20N 28°58' W 013°32'0 0.0
2017-Nov-05 20:50N 28°58' W 013°32'0 0.0
2017-Nov-05 19:26N 28°58' W 013°32'0 0.0
2017-Nov-05 18:59N 28°58' W 013°32'0 0.0
2017-Nov-05 18:26N 28°58' W 013°32'0 0.0
2017-Nov-05 17:56N 28°58' W 013°32'0 0.0
2017-Nov-05 17:26N 28°58' W 013°32'0 0.0
2017-Nov-05 16:50N 28°58' W 013°32'0 0.0
2017-Nov-05 16:26N 28°58' W 013°32'0 0.0
2017-Nov-05 15:56N 28°58' W 013°32'0 0.0
2017-Nov-05 15:27N 28°58' W 013°32'0 0.0
2017-Nov-05 14:49N 28°58' W 013°32'0 0.0
2017-Nov-05 14:25N 28°58' W 013°32'0 0.0
2017-Nov-05 13:55N 28°58' W 013°32'0 0.0
2017-Nov-05 13:25N 28°58' W 013°32'0 0.0
2017-Nov-05 12:55N 28°58' W 013°32'0 0.0
2017-Nov-05 12:28N 28°58' W 013°32'0 0.0
2017-Nov-05 11:55N 28°58' W 013°32'0 0.0
2017-Nov-05 11:25N 28°58' W 013°32'0 0.0
2017-Nov-05 10:46N 28°58' W 013°32'0 0.0
2017-Nov-05 10:25N 28°58' W 013°32'0 0.0
2017-Nov-05 09:55N 28°58' W 013°32'0 0.0
2017-Nov-05 09:13N 28°58' W 013°32'0 0.0
2017-Nov-05 08:49N 28°58' W 013°32'0 0.0
2017-Nov-05 08:13N 28°58' W 013°32'0 0.0
2017-Nov-05 07:49N 28°58' W 013°32'0 0.0
2017-Nov-05 07:25N 28°58' W 013°32'0 0.0
2017-Nov-05 06:55N 28°58' W 013°32'0 0.0
2017-Nov-05 06:19N 28°58' W 013°32'0 0.0
2017-Nov-05 05:55N 28°58' W 013°32'0 0.0
2017-Nov-05 05:19N 28°58' W 013°32'0 0.0
2017-Nov-05 04:55N 28°58' W 013°32'0 0.0
2017-Nov-05 04:19N 28°58' W 013°32'0 0.0
2017-Nov-05 03:58N 28°58' W 013°32'0 0.0
2017-Nov-05 03:22N 28°58' W 013°32'0 0.0
2017-Nov-05 02:37N 28°58' W 013°32'0 0.0
2017-Nov-05 02:19N 28°58' W 013°32'0 0.0
2017-Nov-05 01:55N 28°58' W 013°32'0 0.0
2017-Nov-05 01:22N 28°58' W 013°32'0 0.0
2017-Nov-05 00:49N 28°58' W 013°32'0 0.0
2017-Nov-05 00:28N 28°58' W 013°32'0 0.0
2017-Nov-04 23:58N 28°58' W 013°32'0 0.0
2017-Nov-04 23:22N 28°58' W 013°32'0 0.0
2017-Nov-04 22:58N 28°58' W 013°32'0 0.0
2017-Nov-04 22:28N 28°58' W 013°32'0 0.0
2017-Nov-04 21:46N 28°58' W 013°32'0 0.0
2017-Nov-04 21:28N 28°58' W 013°32'0 0.0
2017-Nov-04 20:58N 28°58' W 013°32'0 0.0
2017-Nov-04 20:28N 28°58' W 013°32'0 0.0
2017-Nov-04 19:58N 28°58' W 013°32'0 0.0
2017-Nov-04 19:16N 28°58' W 013°32'0 0.0
2017-Nov-04 18:58N 28°58' W 013°32'0 0.0
2017-Nov-04 18:28N 28°58' W 013°32'0 0.0
2017-Nov-04 17:58N 28°58' W 013°32'0 0.0
2017-Nov-04 17:28N 28°58' W 013°32'0 0.0
2017-Nov-04 16:58N 28°58' W 013°32'0 0.0
2017-Nov-04 16:28N 28°58' W 013°32'0 0.0
2017-Nov-04 15:58N 28°58' W 013°32'0 0.0
2017-Nov-04 15:22N 28°58' W 013°32'0 0.0
2017-Nov-04 14:58N 28°58' W 013°32'0 0.0
2017-Nov-04 14:28N 28°58' W 013°32'0 0.0
2017-Nov-04 13:58N 28°58' W 013°32'0 0.0
2017-Nov-04 13:22N 28°58' W 013°32'0 0.0
2017-Nov-04 12:58N 28°58' W 013°32'0 0.0
2017-Nov-04 12:22N 28°58' W 013°32'0 0.0
2017-Nov-04 11:58N 28°58' W 013°32'0 0.0
2017-Nov-04 11:10N 28°58' W 013°32'0 0.0
2017-Nov-04 10:58N 28°58' W 013°32'0 0.0
2017-Nov-04 10:28N 28°58' W 013°32'0 0.0
2017-Nov-04 09:52N 28°58' W 013°32'0 0.0
2017-Nov-04 09:28N 28°58' W 013°32'0 0.0
2017-Nov-04 07:46N 28°58' W 013°32'0 0.0
2017-Nov-04 07:28N 28°58' W 013°32'0 0.0
2017-Nov-04 06:58N 28°58' W 013°32'0 0.0
2017-Nov-04 06:22N 28°58' W 013°32'0 0.0
2017-Nov-04 05:52N 28°58' W 013°32'0 0.0
2017-Nov-04 05:22N 28°58' W 013°32'0 0.0
2017-Nov-04 04:46N 28°58' W 013°32'0 0.0
2017-Nov-04 04:16N 28°58' W 013°32'0 0.0
2017-Nov-04 03:58N 28°58' W 013°32'0 0.0
2017-Nov-04 03:28N 28°58' W 013°32'0 0.0
2017-Nov-04 02:58N 28°58' W 013°32'0 0.0
2017-Nov-04 02:28N 28°58' W 013°32'0 0.0
2017-Nov-04 01:40N 28°58' W 013°32'0 0.0
2017-Nov-04 01:22N 28°58' W 013°32'0 0.0
2017-Nov-04 00:58N 28°58' W 013°32'0 0.0
2017-Nov-04 00:28N 28°58' W 013°32'0 0.0
2017-Nov-03 23:52N 28°58' W 013°32'0 0.0
2017-Nov-03 23:28N 28°58' W 013°32'0 0.0
2017-Nov-03 22:58N 28°58' W 013°32'0 0.0
2017-Nov-03 22:28N 28°58' W 013°32'0 0.0
2017-Nov-03 21:58N 28°58' W 013°32'0 0.0
2017-Nov-03 21:22N 28°58' W 013°32'0 0.0
2017-Nov-03 20:58N 28°58' W 013°32'0 0.0
2017-Nov-03 20:22N 28°58' W 013°32'0 0.0
2017-Nov-03 19:58N 28°58' W 013°32'0 0.0
2017-Nov-03 19:28N 28°58' W 013°32'0 0.0
2017-Nov-03 18:58N 28°58' W 013°32'0 0.0
2017-Nov-03 18:26N 28°58' W 013°32'0 0.0
2017-Nov-03 17:56N 28°58' W 013°32'0 0.0
2017-Nov-03 17:26N 28°58' W 013°32'0 0.0
2017-Nov-03 16:56N 28°58' W 013°32'0 0.0
2017-Nov-03 16:26N 28°58' W 013°32'0 0.0
2017-Nov-03 15:56N 28°58' W 013°32'0 0.0
2017-Nov-03 15:26N 28°58' W 013°32'0 0.0
2017-Nov-03 14:50N 28°58' W 013°32'0 0.0
2017-Nov-03 14:26N 28°58' W 013°32'0 0.0
2017-Nov-03 13:56N 28°58' W 013°32'0 0.0
2017-Nov-03 13:26N 28°58' W 013°32'0 0.0
2017-Nov-03 12:56N 28°58' W 013°32'0 0.0
2017-Nov-03 12:17N 28°58' W 013°32'0 0.0
2017-Nov-03 11:50N 28°58' W 013°32'0 0.0
2017-Nov-03 11:29N 28°58' W 013°32'0 0.0
2017-Nov-03 10:56N 28°58' W 013°32'0 0.0
2017-Nov-03 10:26N 28°58' W 013°32'0 0.0
2017-Nov-03 09:56N 28°58' W 013°32'0 0.0
2017-Nov-03 08:53N 28°58' W 013°32'0 0.0
2017-Nov-03 08:14N 28°58' W 013°32'0 0.0
2017-Nov-03 07:41N 28°58' W 013°32'0 0.0
2017-Nov-03 07:23N 28°58' W 013°32'0 0.0
2017-Nov-03 06:59N 28°58' W 013°32'0 0.0
2017-Nov-03 06:26N 28°58' W 013°32'0 0.0
2017-Nov-03 05:56N 28°58' W 013°32'0 0.0
2017-Nov-03 05:14N 28°58' W 013°32'0 0.0
2017-Nov-03 04:59N 28°58' W 013°32'0 0.0
2017-Nov-03 04:02N 28°58' W 013°32'0 0.0
2017-Nov-03 03:44N 28°58' W 013°32'0 0.0
2017-Nov-03 03:20N 28°58' W 013°32'0 0.0
2017-Nov-03 02:50N 28°58' W 013°32'0 0.0
2017-Nov-03 02:02N 28°58' W 013°32'0 0.0
2017-Nov-02 23:50N 28°58' W 013°32'0 0.0
2017-Nov-02 23:26N 28°58' W 013°32'0 0.0
2017-Nov-02 22:50N 28°58' W 013°32'0 0.0
2017-Nov-02 22:14N 28°58' W 013°32'0 0.0
2017-Nov-02 21:50N 28°58' W 013°32'0 0.0
2017-Nov-02 21:26N 28°58' W 013°32'0 0.0
2017-Nov-02 20:20N 28°58' W 013°32'0 0.0
2017-Nov-02 19:44N 28°58' W 013°32'0 0.0
2017-Nov-02 19:08N 28°58' W 013°32'0 0.0
2017-Nov-02 18:59N 28°58' W 013°32'0 0.0
2017-Nov-02 18:20N 28°58' W 013°32'0 0.0
2017-Nov-02 17:56N 28°58' W 013°32'0 0.0
2017-Nov-02 17:26N 28°58' W 013°32'0 0.0
2017-Nov-02 16:50N 28°58' W 013°32'0 0.0
2017-Nov-02 16:14N 28°58' W 013°32'0 0.0
2017-Nov-02 15:59N 28°58' W 013°32'0 0.0
2017-Nov-02 15:26N 28°58' W 013°32'0 0.0
2017-Nov-02 14:56N 28°58' W 013°32'0 0.0
2017-Nov-02 13:44N 28°58' W 013°32'0 0.0
2017-Nov-02 13:26N 28°58' W 013°32'0 0.0
2017-Nov-02 12:56N 28°58' W 013°32'0 0.0
2017-Nov-02 12:26N 28°58' W 013°32'0 0.0
2017-Nov-02 11:56N 28°58' W 013°32'0 0.0
2017-Nov-02 11:26N 28°58' W 013°32'0 0.0
2017-Nov-02 10:32N 28°58' W 013°32'0 0.0
2017-Nov-02 10:26N 28°58' W 013°32'0 0.0
2017-Nov-02 09:56N 28°58' W 013°32'0 0.0
2017-Nov-02 09:29N 28°58' W 013°32'0 0.0
2017-Nov-02 08:56N 28°58' W 013°32'0 0.0
2017-Nov-02 08:26N 28°58' W 013°32'0 0.0
2017-Nov-02 07:44N 28°58' W 013°32'0 0.0
2017-Nov-02 07:26N 28°58' W 013°32'0 0.0
2017-Nov-02 06:56N 28°58' W 013°32'0 0.0
2017-Nov-02 04:38N 28°58' W 013°32'0 0.0
2017-Nov-02 04:08N 28°58' W 013°32'0 0.0
2017-Nov-02 03:11N 28°58' W 013°32'0 0.0
2017-Nov-02 02:35N 28°58' W 013°32'0 0.0
2017-Nov-02 02:20N 28°58' W 013°32'0 0.0
2017-Nov-02 01:38N 28°58' W 013°32'0 0.0
2017-Nov-02 01:08N 28°58' W 013°32'0 0.0
2017-Nov-02 00:44N 28°58' W 013°32'0 0.0
2017-Nov-02 00:20N 28°58' W 013°32'0 0.0
2017-Nov-01 23:44N 28°58' W 013°32'0 0.0
2017-Nov-01 23:20N 28°58' W 013°32'0 0.0
2017-Nov-01 21:56N 28°58' W 013°32'0 0.0
2017-Nov-01 21:26N 28°58' W 013°32'0 0.0
2017-Nov-01 20:56N 28°58' W 013°32'0 0.0
2017-Nov-01 20:20N 28°58' W 013°32'0 0.0
2017-Nov-01 19:56N 28°58' W 013°32'0 0.0
2017-Nov-01 19:26N 28°58' W 013°32'0 0.0
2017-Nov-01 18:56N 28°58' W 013°32'0 0.0
2017-Nov-01 18:26N 28°58' W 013°32'0 0.0
2017-Oct-31 19:23N 28°58' W 013°32'0 0.0
2017-Oct-31 18:47N 28°58' W 013°32'0 0.0
2017-Oct-31 18:14N 28°58' W 013°32'0 0.0
2017-Oct-31 17:59N 28°58' W 013°32'0 0.0
2017-Oct-31 17:29N 28°58' W 013°32'0 0.0
2017-Oct-31 03:50N 28°58' W 013°32'  
Track history (hours):
 
Tides and Currents Weather Stations Pressure Air Temp Water Temp Dewpoint Dewpoint Depression Visibility Wind Speed Wind Dir Waves Ship Positions

The Blue Peter

Last reported at 2017-Nov-10 03:48 UTC. Time now 2017-Nov-24 04:03 UTC.
Position N 27°46' W 015°03'.
Warning: this ship's position is 14 days out of date.

Length 20 m.

MMSI: 235095651.

Date/timePositionNaut miles runAvg speedWind from/ knotsBaromVisibWave heightAir tempDewpointWater temp
2017-Nov-10 03:48N 27°46' W 015°03'2 6.0
2017-Nov-10 03:30N 27°48' W 015°02'3 5.9
2017-Nov-10 03:00N 27°50' W 014°60'3 6.2
2017-Nov-10 02:30N 27°52' W 014°57'3 6.1
2017-Nov-10 02:00N 27°54' W 014°54'3 6.1
2017-Nov-10 01:29N 27°56' W 014°52'3 6.0
2017-Nov-10 01:00N 27°58' W 014°49'3 6.1
2017-Nov-10 00:29N 27°60' W 014°47'3 6.0
2017-Nov-09 23:58N 28°02' W 014°44'3 5.7
2017-Nov-09 23:29N 28°04' W 014°42'3 5.8
2017-Nov-09 22:57N 28°07' W 014°40'3 5.8
2017-Nov-09 22:28N 28°09' W 014°38'3 5.8
2017-Nov-09 21:57N 28°11' W 014°36'58 5.5
2017-Nov-09 11:29N 28°49' W 013°46'8 0.4
2017-Nov-08 14:22N 28°54' W 013°39'2 6.7
2017-Nov-08 14:00N 28°56' W 013°37'4 7.2
2017-Nov-08 13:30N 28°57' W 013°33'1 3.0
2017-Nov-08 13:00N 28°58' W 013°32'0 0.7
2017-Nov-08 12:25N 28°58' W 013°32'0 0.0
2017-Nov-08 11:55N 28°58' W 013°32'0 0.0
2017-Nov-08 11:31N 28°58' W 013°32'0 0.0
2017-Nov-08 11:01N 28°58' W 013°32'0 0.0
2017-Nov-08 10:31N 28°58' W 013°32'0 0.0
2017-Nov-08 09:46N 28°58' W 013°32'0 0.0
2017-Nov-07 15:23N 28°58' W 013°32'0 0.0
2017-Nov-07 14:50N 28°58' W 013°32'0 0.0
2017-Nov-07 14:20N 28°58' W 013°32'0 0.0
2017-Nov-07 13:56N 28°58' W 013°32'0 0.0
2017-Nov-07 12:08N 28°58' W 013°32'0 0.0
2017-Nov-07 11:14N 28°58' W 013°32'0 0.0
2017-Nov-07 10:53N 28°58' W 013°32'0 0.0
2017-Nov-07 10:26N 28°58' W 013°32'0 0.0
2017-Nov-07 09:56N 28°58' W 013°32'0 0.0
2017-Nov-07 08:56N 28°58' W 013°32'0 0.0
2017-Nov-07 07:26N 28°58' W 013°32'0 0.0
2017-Nov-07 06:56N 28°58' W 013°32'0 0.0
2017-Nov-07 06:29N 28°58' W 013°32'0 0.0
2017-Nov-07 05:50N 28°58' W 013°32'0 0.0
2017-Nov-07 05:08N 28°58' W 013°32'0 0.0
2017-Nov-07 04:44N 28°58' W 013°32'0 0.0
2017-Nov-07 04:02N 28°58' W 013°32'0 0.0
2017-Nov-07 03:53N 28°58' W 013°32'0 0.0
2017-Nov-07 02:32N 28°58' W 013°32'0 0.0
2017-Nov-07 02:20N 28°58' W 013°32'0 0.0
2017-Nov-07 01:56N 28°58' W 013°32'0 0.0
2017-Nov-07 01:20N 28°58' W 013°32'0 0.0
2017-Nov-06 21:38N 28°58' W 013°32'0 0.0
2017-Nov-06 21:14N 28°58' W 013°32'0 0.0
2017-Nov-06 20:56N 28°58' W 013°32'0 0.0
2017-Nov-06 20:14N 28°58' W 013°32'0 0.0
2017-Nov-06 02:20N 28°58' W 013°32'0 0.0
2017-Nov-06 01:56N 28°58' W 013°32'0 0.0
2017-Nov-06 01:26N 28°58' W 013°32'0 0.0
2017-Nov-06 00:56N 28°58' W 013°32'0 0.0
2017-Nov-06 00:26N 28°58' W 013°32'0 0.0
2017-Nov-05 23:59N 28°58' W 013°32'0 0.0
2017-Nov-05 23:26N 28°58' W 013°32'0 0.0
2017-Nov-05 22:50N 28°58' W 013°32'0 0.0
2017-Nov-05 22:08N 28°58' W 013°32'0 0.0
2017-Nov-05 21:50N 28°58' W 013°32'0 0.0
2017-Nov-05 21:20N 28°58' W 013°32'0 0.0
2017-Nov-05 20:50N 28°58' W 013°32'0 0.0
2017-Nov-05 19:26N 28°58' W 013°32'0 0.0
2017-Nov-05 18:59N 28°58' W 013°32'0 0.0
2017-Nov-05 18:26N 28°58' W 013°32'0 0.0
2017-Nov-05 17:56N 28°58' W 013°32'0 0.0
2017-Nov-05 17:26N 28°58' W 013°32'0 0.0
2017-Nov-05 16:50N 28°58' W 013°32'0 0.0
2017-Nov-05 16:26N 28°58' W 013°32'0 0.0
2017-Nov-05 15:56N 28°58' W 013°32'0 0.0
2017-Nov-05 15:27N 28°58' W 013°32'0 0.0
2017-Nov-05 14:49N 28°58' W 013°32'0 0.0
2017-Nov-05 14:25N 28°58' W 013°32'0 0.0
2017-Nov-05 13:55N 28°58' W 013°32'0 0.0
2017-Nov-05 13:25N 28°58' W 013°32'0 0.0
2017-Nov-05 12:55N 28°58' W 013°32'0 0.0
2017-Nov-05 12:28N 28°58' W 013°32'0 0.0
2017-Nov-05 11:55N 28°58' W 013°32'0 0.0
2017-Nov-05 11:25N 28°58' W 013°32'0 0.0
2017-Nov-05 10:46N 28°58' W 013°32'0 0.0
2017-Nov-05 10:25N 28°58' W 013°32'0 0.0
2017-Nov-05 09:55N 28°58' W 013°32'0 0.0
2017-Nov-05 09:13N 28°58' W 013°32'0 0.0
2017-Nov-05 08:49N 28°58' W 013°32'0 0.0
2017-Nov-05 08:13N 28°58' W 013°32'0 0.0
2017-Nov-05 07:49N 28°58' W 013°32'0 0.0
2017-Nov-05 07:25N 28°58' W 013°32'0 0.0
2017-Nov-05 06:55N 28°58' W 013°32'0 0.0
2017-Nov-05 06:19N 28°58' W 013°32'0 0.0
2017-Nov-05 05:55N 28°58' W 013°32'0 0.0
2017-Nov-05 05:19N 28°58' W 013°32'0 0.0
2017-Nov-05 04:55N 28°58' W 013°32'0 0.0
2017-Nov-05 04:19N 28°58' W 013°32'0 0.0
2017-Nov-05 03:58N 28°58' W 013°32'0 0.0
2017-Nov-05 03:22N 28°58' W 013°32'0 0.0
2017-Nov-05 02:37N 28°58' W 013°32'0 0.0
2017-Nov-05 02:19N 28°58' W 013°32'0 0.0
2017-Nov-05 01:55N 28°58' W 013°32'0 0.0
2017-Nov-05 01:22N 28°58' W 013°32'0 0.0
2017-Nov-05 00:49N 28°58' W 013°32'0 0.0
2017-Nov-05 00:28N 28°58' W 013°32'0 0.0
2017-Nov-04 23:58N 28°58' W 013°32'0 0.0
2017-Nov-04 23:22N 28°58' W 013°32'0 0.0
2017-Nov-04 22:58N 28°58' W 013°32'0 0.0
2017-Nov-04 22:28N 28°58' W 013°32'0 0.0
2017-Nov-04 21:46N 28°58' W 013°32'0 0.0
2017-Nov-04 21:28N 28°58' W 013°32'0 0.0
2017-Nov-04 20:58N 28°58' W 013°32'0 0.0
2017-Nov-04 20:28N 28°58' W 013°32'0 0.0
2017-Nov-04 19:58N 28°58' W 013°32'0 0.0
2017-Nov-04 19:16N 28°58' W 013°32'0 0.0
2017-Nov-04 18:58N 28°58' W 013°32'0 0.0
2017-Nov-04 18:28N 28°58' W 013°32'0 0.0
2017-Nov-04 17:58N 28°58' W 013°32'0 0.0
2017-Nov-04 17:28N 28°58' W 013°32'0 0.0
2017-Nov-04 16:58N 28°58' W 013°32'0 0.0
2017-Nov-04 16:28N 28°58' W 013°32'0 0.0
2017-Nov-04 15:58N 28°58' W 013°32'0 0.0
2017-Nov-04 15:22N 28°58' W 013°32'0 0.0
2017-Nov-04 14:58N 28°58' W 013°32'0 0.0
2017-Nov-04 14:28N 28°58' W 013°32'0 0.0
2017-Nov-04 13:58N 28°58' W 013°32'0 0.0
2017-Nov-04 13:22N 28°58' W 013°32'0 0.0
2017-Nov-04 12:58N 28°58' W 013°32'0 0.0
2017-Nov-04 12:22N 28°58' W 013°32'0 0.0
2017-Nov-04 11:58N 28°58' W 013°32'0 0.0
2017-Nov-04 11:10N 28°58' W 013°32'0 0.0
2017-Nov-04 10:58N 28°58' W 013°32'0 0.0
2017-Nov-04 10:28N 28°58' W 013°32'0 0.0
2017-Nov-04 09:52N 28°58' W 013°32'0 0.0
2017-Nov-04 09:28N 28°58' W 013°32'0 0.0
2017-Nov-04 07:46N 28°58' W 013°32'0 0.0
2017-Nov-04 07:28N 28°58' W 013°32'0 0.0
2017-Nov-04 06:58N 28°58' W 013°32'0 0.0
2017-Nov-04 06:22N 28°58' W 013°32'0 0.0
2017-Nov-04 05:52N 28°58' W 013°32'0 0.0
2017-Nov-04 05:22N 28°58' W 013°32'0 0.0
2017-Nov-04 04:46N 28°58' W 013°32'0 0.0
2017-Nov-04 04:16N 28°58' W 013°32'0 0.0
2017-Nov-04 03:58N 28°58' W 013°32'0 0.0
2017-Nov-04 03:28N 28°58' W 013°32'0 0.0
2017-Nov-04 02:58N 28°58' W 013°32'0 0.0
2017-Nov-04 02:28N 28°58' W 013°32'0 0.0
2017-Nov-04 01:40N 28°58' W 013°32'0 0.0
2017-Nov-04 01:22N 28°58' W 013°32'0 0.0
2017-Nov-04 00:58N 28°58' W 013°32'0 0.0
2017-Nov-04 00:28N 28°58' W 013°32'0 0.0
2017-Nov-03 23:52N 28°58' W 013°32'0 0.0
2017-Nov-03 23:28N 28°58' W 013°32'0 0.0
2017-Nov-03 22:58N 28°58' W 013°32'0 0.0
2017-Nov-03 22:28N 28°58' W 013°32'0 0.0
2017-Nov-03 21:58N 28°58' W 013°32'0 0.0
2017-Nov-03 21:22N 28°58' W 013°32'0 0.0
2017-Nov-03 20:58N 28°58' W 013°32'0 0.0
2017-Nov-03 20:22N 28°58' W 013°32'0 0.0
2017-Nov-03 19:58N 28°58' W 013°32'0 0.0
2017-Nov-03 19:28N 28°58' W 013°32'0 0.0
2017-Nov-03 18:58N 28°58' W 013°32'0 0.0
2017-Nov-03 18:26N 28°58' W 013°32'0 0.0
2017-Nov-03 17:56N 28°58' W 013°32'0 0.0
2017-Nov-03 17:26N 28°58' W 013°32'0 0.0
2017-Nov-03 16:56N 28°58' W 013°32'0 0.0
2017-Nov-03 16:26N 28°58' W 013°32'0 0.0
2017-Nov-03 15:56N 28°58' W 013°32'0 0.0
2017-Nov-03 15:26N 28°58' W 013°32'0 0.0
2017-Nov-03 14:50N 28°58' W 013°32'0 0.0
2017-Nov-03 14:26N 28°58' W 013°32'0 0.0
2017-Nov-03 13:56N 28°58' W 013°32'0 0.0
2017-Nov-03 13:26N 28°58' W 013°32'0 0.0
2017-Nov-03 12:56N 28°58' W 013°32'0 0.0
2017-Nov-03 12:17N 28°58' W 013°32'0 0.0
2017-Nov-03 11:50N 28°58' W 013°32'0 0.0
2017-Nov-03 11:29N 28°58' W 013°32'0 0.0
2017-Nov-03 10:56N 28°58' W 013°32'0 0.0
2017-Nov-03 10:26N 28°58' W 013°32'0 0.0
2017-Nov-03 09:56N 28°58' W 013°32'0 0.0
2017-Nov-03 08:53N 28°58' W 013°32'0 0.0
2017-Nov-03 08:14N 28°58' W 013°32'0 0.0
2017-Nov-03 07:41N 28°58' W 013°32'0 0.0
2017-Nov-03 07:23N 28°58' W 013°32'0 0.0
2017-Nov-03 06:59N 28°58' W 013°32'0 0.0
2017-Nov-03 06:26N 28°58' W 013°32'0 0.0
2017-Nov-03 05:56N 28°58' W 013°32'0 0.0
2017-Nov-03 05:14N 28°58' W 013°32'0 0.0
2017-Nov-03 04:59N 28°58' W 013°32'0 0.0
2017-Nov-03 04:02N 28°58' W 013°32'0 0.0
2017-Nov-03 03:44N 28°58' W 013°32'0 0.0
2017-Nov-03 03:20N 28°58' W 013°32'0 0.0
2017-Nov-03 02:50N 28°58' W 013°32'0 0.0
2017-Nov-03 02:02N 28°58' W 013°32'0 0.0
2017-Nov-02 23:50N 28°58' W 013°32'0 0.0
2017-Nov-02 23:26N 28°58' W 013°32'0 0.0
2017-Nov-02 22:50N 28°58' W 013°32'0 0.0
2017-Nov-02 22:14N 28°58' W 013°32'0 0.0
2017-Nov-02 21:50N 28°58' W 013°32'0 0.0
2017-Nov-02 21:26N 28°58' W 013°32'0 0.0
2017-Nov-02 20:20N 28°58' W 013°32'0 0.0
2017-Nov-02 19:44N 28°58' W 013°32'0 0.0
2017-Nov-02 19:08N 28°58' W 013°32'0 0.0
2017-Nov-02 18:59N 28°58' W 013°32'0 0.0
2017-Nov-02 18:20N 28°58' W 013°32'0 0.0
2017-Nov-02 17:56N 28°58' W 013°32'0 0.0
2017-Nov-02 17:26N 28°58' W 013°32'0 0.0
2017-Nov-02 16:50N 28°58' W 013°32'0 0.0
2017-Nov-02 16:14N 28°58' W 013°32'0 0.0
2017-Nov-02 15:59N 28°58' W 013°32'0 0.0
2017-Nov-02 15:26N 28°58' W 013°32'0 0.0
2017-Nov-02 14:56N 28°58' W 013°32'0 0.0
2017-Nov-02 13:44N 28°58' W 013°32'0 0.0
2017-Nov-02 13:26N 28°58' W 013°32'0 0.0
2017-Nov-02 12:56N 28°58' W 013°32'0 0.0
2017-Nov-02 12:26N 28°58' W 013°32'0 0.0
2017-Nov-02 11:56N 28°58' W 013°32'0 0.0
2017-Nov-02 11:26N 28°58' W 013°32'0 0.0
2017-Nov-02 10:32N 28°58' W 013°32'0 0.0
2017-Nov-02 10:26N 28°58' W 013°32'0 0.0
2017-Nov-02 09:56N 28°58' W 013°32'0 0.0
2017-Nov-02 09:29N 28°58' W 013°32'0 0.0
2017-Nov-02 08:56N 28°58' W 013°32'0 0.0
2017-Nov-02 08:26N 28°58' W 013°32'0 0.0
2017-Nov-02 07:44N 28°58' W 013°32'0 0.0
2017-Nov-02 07:26N 28°58' W 013°32'0 0.0
2017-Nov-02 06:56N 28°58' W 013°32'0 0.0
2017-Nov-02 04:38N 28°58' W 013°32'0 0.0
2017-Nov-02 04:08N 28°58' W 013°32'0 0.0
2017-Nov-02 03:11N 28°58' W 013°32'0 0.0
2017-Nov-02 02:35N 28°58' W 013°32'0 0.0
2017-Nov-02 02:20N 28°58' W 013°32'0 0.0
2017-Nov-02 01:38N 28°58' W 013°32'0 0.0
2017-Nov-02 01:08N 28°58' W 013°32'0 0.0
2017-Nov-02 00:44N 28°58' W 013°32'0 0.0
2017-Nov-02 00:20N 28°58' W 013°32'0 0.0
2017-Nov-01 23:44N 28°58' W 013°32'0 0.0
2017-Nov-01 23:20N 28°58' W 013°32'0 0.0
2017-Nov-01 21:56N 28°58' W 013°32'0 0.0
2017-Nov-01 21:26N 28°58' W 013°32'0 0.0
2017-Nov-01 20:56N 28°58' W 013°32'0 0.0
2017-Nov-01 20:20N 28°58' W 013°32'0 0.0
2017-Nov-01 19:56N 28°58' W 013°32'0 0.0
2017-Nov-01 19:26N 28°58' W 013°32'0 0.0
2017-Nov-01 18:56N 28°58' W 013°32'0 0.0
2017-Nov-01 18:26N 28°58' W 013°32'0 0.0
2017-Oct-31 19:23N 28°58' W 013°32'0 0.0
2017-Oct-31 18:47N 28°58' W 013°32'0 0.0
2017-Oct-31 18:14N 28°58' W 013°32'0 0.0
2017-Oct-31 17:59N 28°58' W 013°32'0 0.0
2017-Oct-31 17:29N 28°58' W 013°32'0 0.0
2017-Oct-31 03:50N 28°58' W 013°32'  

Dump ship's entire track history